sensor_id;sensor_type;location;lat;lon;timestamp;temperature;humidity
32728;DHT22;55292;51.844;19.246;2023-08-30T00:04:06;16.50;99.90
32728;DHT22;55292;51.844;19.246;2023-08-30T00:09:09;16.40;99.90
32728;DHT22;55292;51.844;19.246;2023-08-30T00:14:12;16.30;99.90
32728;DHT22;55292;51.844;19.246;2023-08-30T00:19:15;16.30;99.90
32728;DHT22;55292;51.844;19.246;2023-08-30T00:24:18;16.30;99.90
32728;DHT22;55292;51.844;19.246;2023-08-30T00:29:21;16.30;99.90
32728;DHT22;55292;51.844;19.246;2023-08-30T00:34:23;16.30;99.90
32728;DHT22;55292;51.844;19.246;2023-08-30T00:39:26;16.30;99.90
32728;DHT22;55292;51.844;19.246;2023-08-30T00:44:28;16.20;99.90
32728;DHT22;55292;51.844;19.246;2023-08-30T00:49:32;16.20;99.90
32728;DHT22;55292;51.844;19.246;2023-08-30T00:54:34;16.20;99.90
32728;DHT22;55292;51.844;19.246;2023-08-30T00:59:37;16.20;99.90
32728;DHT22;55292;51.844;19.246;2023-08-30T01:04:40;16.30;99.90
32728;DHT22;55292;51.844;19.246;2023-08-30T01:09:42;16.20;99.90
32728;DHT22;55292;51.844;19.246;2023-08-30T01:15:00;16.20;99.90
32728;DHT22;55292;51.844;19.246;2023-08-30T01:20:07;16.20;99.90
32728;DHT22;55292;51.844;19.246;2023-08-30T01:30:29;16.10;99.90
32728;DHT22;55292;51.844;19.246;2023-08-30T01:35:35;16.20;99.90
32728;DHT22;55292;51.844;19.246;2023-08-30T01:40:43;16.30;99.90
32728;DHT22;55292;51.844;19.246;2023-08-30T01:45:46;16.20;99.90
32728;DHT22;55292;51.844;19.246;2023-08-30T01:50:49;16.20;99.90
32728;DHT22;55292;51.844;19.246;2023-08-30T01:55:52;16.20;99.90
32728;DHT22;55292;51.844;19.246;2023-08-30T02:00:55;16.20;99.90
32728;DHT22;55292;51.844;19.246;2023-08-30T02:06:06;16.20;99.90
32728;DHT22;55292;51.844;19.246;2023-08-30T02:11:17;16.30;99.90
32728;DHT22;55292;51.844;19.246;2023-08-30T02:16:22;16.30;99.90
32728;DHT22;55292;51.844;19.246;2023-08-30T02:21:26;16.30;99.90
32728;DHT22;55292;51.844;19.246;2023-08-30T02:26:29;16.30;99.90
32728;DHT22;55292;51.844;19.246;2023-08-30T02:31:32;16.30;99.90
32728;DHT22;55292;51.844;19.246;2023-08-30T02:36:34;16.30;99.90
32728;DHT22;55292;51.844;19.246;2023-08-30T02:41:37;16.20;99.90
32728;DHT22;55292;51.844;19.246;2023-08-30T02:46:41;16.20;99.90
32728;DHT22;55292;51.844;19.246;2023-08-30T02:51:44;16.30;99.90
32728;DHT22;55292;51.844;19.246;2023-08-30T02:56:47;16.30;99.90
32728;DHT22;55292;51.844;19.246;2023-08-30T03:01:50;16.30;99.90
32728;DHT22;55292;51.844;19.246;2023-08-30T03:06:54;16.30;99.90
32728;DHT22;55292;51.844;19.246;2023-08-30T03:11:58;16.20;99.90
32728;DHT22;55292;51.844;19.246;2023-08-30T03:17:01;16.20;99.90
32728;DHT22;55292;51.844;19.246;2023-08-30T03:22:04;16.20;99.90
32728;DHT22;55292;51.844;19.246;2023-08-30T03:27:07;15.10;99.90
32728;DHT22;55292;51.844;19.246;2023-08-30T03:32:13;16.10;99.90
32728;DHT22;55292;51.844;19.246;2023-08-30T03:37:17;16.00;99.90
32728;DHT22;55292;51.844;19.246;2023-08-30T03:42:19;16.10;99.90
32728;DHT22;55292;51.844;19.246;2023-08-30T03:47:22;16.10;99.90
32728;DHT22;55292;51.844;19.246;2023-08-30T03:52:25;16.20;99.90
32728;DHT22;55292;51.844;19.246;2023-08-30T03:57:28;16.10;99.90
32728;DHT22;55292;51.844;19.246;2023-08-30T04:02:31;16.10;99.90
32728;DHT22;55292;51.844;19.246;2023-08-30T04:07:33;16.10;99.90
32728;DHT22;55292;51.844;19.246;2023-08-30T04:12:36;16.10;99.90
32728;DHT22;55292;51.844;19.246;2023-08-30T04:17:39;16.10;99.90
32728;DHT22;55292;51.844;19.246;2023-08-30T04:22:42;15.90;99.90
32728;DHT22;55292;51.844;19.246;2023-08-30T04:27:44;15.90;99.90
32728;DHT22;55292;51.844;19.246;2023-08-30T04:32:47;15.90;99.90
32728;DHT22;55292;51.844;19.246;2023-08-30T04:37:50;15.90;99.90
32728;DHT22;55292;51.844;19.246;2023-08-30T04:42:53;15.90;99.90
32728;DHT22;55292;51.844;19.246;2023-08-30T04:47:56;16.00;99.90
32728;DHT22;55292;51.844;19.246;2023-08-30T04:53:00;16.10;99.90
32728;DHT22;55292;51.844;19.246;2023-08-30T04:58:04;16.20;99.90
32728;DHT22;55292;51.844;19.246;2023-08-30T05:03:09;16.20;99.90
32728;DHT22;55292;51.844;19.246;2023-08-30T05:08:12;16.20;99.90
32728;DHT22;55292;51.844;19.246;2023-08-30T05:13:16;16.30;99.90
32728;DHT22;55292;51.844;19.246;2023-08-30T05:18:19;16.40;99.90
32728;DHT22;55292;51.844;19.246;2023-08-30T05:23:22;16.40;99.90
32728;DHT22;55292;51.844;19.246;2023-08-30T05:28:25;16.50;99.90
32728;DHT22;55292;51.844;19.246;2023-08-30T05:33:28;16.60;99.90
32728;DHT22;55292;51.844;19.246;2023-08-30T05:38:40;16.60;99.90
32728;DHT22;55292;51.844;19.246;2023-08-30T05:43:57;16.50;99.90
32728;DHT22;55292;51.844;19.246;2023-08-30T05:49:00;16.50;99.90
32728;DHT22;55292;51.844;19.246;2023-08-30T05:54:05;16.60;99.90
32728;DHT22;55292;51.844;19.246;2023-08-30T05:59:10;16.50;99.90
32728;DHT22;55292;51.844;19.246;2023-08-30T06:04:13;16.60;99.90
32728;DHT22;55292;51.844;19.246;2023-08-30T06:09:16;16.60;99.90
32728;DHT22;55292;51.844;19.246;2023-08-30T06:14:19;16.60;99.90
32728;DHT22;55292;51.844;19.246;2023-08-30T06:19:22;16.60;99.90
32728;DHT22;55292;51.844;19.246;2023-08-30T06:24:25;16.60;99.90
32728;DHT22;55292;51.844;19.246;2023-08-30T06:29:28;16.70;99.90
32728;DHT22;55292;51.844;19.246;2023-08-30T06:34:30;16.60;99.90
32728;DHT22;55292;51.844;19.246;2023-08-30T06:39:34;16.60;99.90
32728;DHT22;55292;51.844;19.246;2023-08-30T06:44:39;16.60;99.90
32728;DHT22;55292;51.844;19.246;2023-08-30T06:49:43;16.70;99.90
32728;DHT22;55292;51.844;19.246;2023-08-30T06:54:45;16.70;99.90
32728;DHT22;55292;51.844;19.246;2023-08-30T06:59:48;16.70;99.90
32728;DHT22;55292;51.844;19.246;2023-08-30T07:04:50;16.90;99.90
32728;DHT22;55292;51.844;19.246;2023-08-30T07:09:53;17.00;99.90
32728;DHT22;55292;51.844;19.246;2023-08-30T07:14:56;17.10;99.90
32728;DHT22;55292;51.844;19.246;2023-08-30T07:20:00;17.30;99.90
32728;DHT22;55292;51.844;19.246;2023-08-30T07:25:03;17.10;99.90
32728;DHT22;55292;51.844;19.246;2023-08-30T07:30:07;17.10;99.90
32728;DHT22;55292;51.844;19.246;2023-08-30T07:35:10;17.10;99.90
32728;DHT22;55292;51.844;19.246;2023-08-30T07:40:16;17.10;99.90
32728;DHT22;55292;51.844;19.246;2023-08-30T07:45:19;17.20;99.90
32728;DHT22;55292;51.844;19.246;2023-08-30T07:50:21;17.30;99.90
32728;DHT22;55292;51.844;19.246;2023-08-30T07:55:24;17.40;99.90
32728;DHT22;55292;51.844;19.246;2023-08-30T08:00:27;17.50;99.90
32728;DHT22;55292;51.844;19.246;2023-08-30T08:05:29;17.60;99.90
32728;DHT22;55292;51.844;19.246;2023-08-30T08:10:33;17.60;99.90
32728;DHT22;55292;51.844;19.246;2023-08-30T08:15:38;17.60;99.90
32728;DHT22;55292;51.844;19.246;2023-08-30T08:20:42;17.20;99.90
32728;DHT22;55292;51.844;19.246;2023-08-30T08:25:45;17.20;99.90
32728;DHT22;55292;51.844;19.246;2023-08-30T08:30:48;17.40;99.90
32728;DHT22;55292;51.844;19.246;2023-08-30T08:35:53;17.50;99.90
32728;DHT22;55292;51.844;19.246;2023-08-30T08:41:02;17.30;99.90
32728;DHT22;55292;51.844;19.246;2023-08-30T08:46:08;17.20;99.90
32728;DHT22;55292;51.844;19.246;2023-08-30T08:51:12;17.20;99.90
32728;DHT22;55292;51.844;19.246;2023-08-30T08:56:17;17.40;99.90
32728;DHT22;55292;51.844;19.246;2023-08-30T09:01:20;17.20;99.90
32728;DHT22;55292;51.844;19.246;2023-08-30T09:06:37;17.50;99.90
32728;DHT22;55292;51.844;19.246;2023-08-30T09:11:42;17.50;99.90
32728;DHT22;55292;51.844;19.246;2023-08-30T09:17:01;17.30;99.90
32728;DHT22;55292;51.844;19.246;2023-08-30T09:22:04;17.10;99.90
32728;DHT22;55292;51.844;19.246;2023-08-30T09:27:07;17.30;99.90
32728;DHT22;55292;51.844;19.246;2023-08-30T09:32:10;17.30;99.90
32728;DHT22;55292;51.844;19.246;2023-08-30T09:37:20;17.20;99.90
32728;DHT22;55292;51.844;19.246;2023-08-30T09:42:23;17.10;99.90
32728;DHT22;55292;51.844;19.246;2023-08-30T09:47:26;17.10;99.90
32728;DHT22;55292;51.844;19.246;2023-08-30T09:52:30;17.20;99.90
32728;DHT22;55292;51.844;19.246;2023-08-30T09:57:34;17.20;99.90
32728;DHT22;55292;51.844;19.246;2023-08-30T10:02:38;17.60;99.90
32728;DHT22;55292;51.844;19.246;2023-08-30T10:08:04;18.20;99.90
32728;DHT22;55292;51.844;19.246;2023-08-30T10:13:13;18.50;99.90
32728;DHT22;55292;51.844;19.246;2023-08-30T10:18:19;18.50;99.90
32728;DHT22;55292;51.844;19.246;2023-08-30T10:23:23;18.40;99.90
32728;DHT22;55292;51.844;19.246;2023-08-30T10:28:28;18.50;99.90
32728;DHT22;55292;51.844;19.246;2023-08-30T10:33:31;18.40;99.90
32728;DHT22;55292;51.844;19.246;2023-08-30T10:38:36;18.40;99.90
32728;DHT22;55292;51.844;19.246;2023-08-30T10:43:52;18.60;99.90
32728;DHT22;55292;51.844;19.246;2023-08-30T10:49:11;18.40;99.90
32728;DHT22;55292;51.844;19.246;2023-08-30T10:54:17;18.10;99.90
32728;DHT22;55292;51.844;19.246;2023-08-30T10:59:21;18.20;99.90
32728;DHT22;55292;51.844;19.246;2023-08-30T11:04:24;18.20;99.90
32728;DHT22;55292;51.844;19.246;2023-08-30T11:09:27;18.20;99.90
32728;DHT22;55292;51.844;19.246;2023-08-30T11:14:30;18.10;99.90
32728;DHT22;55292;51.844;19.246;2023-08-30T11:19:32;18.30;99.90
32728;DHT22;55292;51.844;19.246;2023-08-30T11:24:36;18.80;99.90
32728;DHT22;55292;51.844;19.246;2023-08-30T11:29:39;19.00;99.90
32728;DHT22;55292;51.844;19.246;2023-08-30T11:34:42;18.80;99.90
32728;DHT22;55292;51.844;19.246;2023-08-30T11:39:45;19.00;99.90
32728;DHT22;55292;51.844;19.246;2023-08-30T11:44:49;19.20;99.90
32728;DHT22;55292;51.844;19.246;2023-08-30T11:49:57;19.50;99.90
32728;DHT22;55292;51.844;19.246;2023-08-30T11:55:02;19.70;99.90
32728;DHT22;55292;51.844;19.246;2023-08-30T12:00:11;20.00;99.90
32728;DHT22;55292;51.844;19.246;2023-08-30T12:05:14;19.80;99.90
32728;DHT22;55292;51.844;19.246;2023-08-30T12:10:18;19.70;99.90
32728;DHT22;55292;51.844;19.246;2023-08-30T12:15:23;19.60;99.90
32728;DHT22;55292;51.844;19.246;2023-08-30T12:20:28;19.40;99.90
32728;DHT22;55292;51.844;19.246;2023-08-30T12:25:31;19.60;99.90
32728;DHT22;55292;51.844;19.246;2023-08-30T12:30:34;19.40;99.90
32728;DHT22;55292;51.844;19.246;2023-08-30T12:35:37;19.30;99.90
32728;DHT22;55292;51.844;19.246;2023-08-30T12:40:40;19.10;99.90
32728;DHT22;55292;51.844;19.246;2023-08-30T12:45:44;18.60;99.90
32728;DHT22;55292;51.844;19.246;2023-08-30T12:50:48;18.50;99.90
32728;DHT22;55292;51.844;19.246;2023-08-30T12:55:51;18.40;99.90
32728;DHT22;55292;51.844;19.246;2023-08-30T13:00:54;18.70;99.90
32728;DHT22;55292;51.844;19.246;2023-08-30T13:05:56;19.20;99.90
32728;DHT22;55292;51.844;19.246;2023-08-30T13:11:01;19.70;99.90
32728;DHT22;55292;51.844;19.246;2023-08-30T13:16:03;20.40;99.90
32728;DHT22;55292;51.844;19.246;2023-08-30T13:21:06;20.40;99.90
32728;DHT22;55292;51.844;19.246;2023-08-30T13:26:09;20.10;99.90
32728;DHT22;55292;51.844;19.246;2023-08-30T13:31:12;18.20;99.90
32728;DHT22;55292;51.844;19.246;2023-08-30T13:36:15;20.40;99.90
32728;DHT22;55292;51.844;19.246;2023-08-30T13:41:18;20.60;99.90
32728;DHT22;55292;51.844;19.246;2023-08-30T13:46:20;20.60;99.90
32728;DHT22;55292;51.844;19.246;2023-08-30T13:51:24;20.40;99.90
32728;DHT22;55292;51.844;19.246;2023-08-30T13:56:28;20.00;99.90
32728;DHT22;55292;51.844;19.246;2023-08-30T14:01:33;19.90;99.90
32728;DHT22;55292;51.844;19.246;2023-08-30T14:06:37;19.70;99.90
32728;DHT22;55292;51.844;19.246;2023-08-30T14:11:40;19.50;99.90
32728;DHT22;55292;51.844;19.246;2023-08-30T14:16:43;19.10;99.90
32728;DHT22;55292;51.844;19.246;2023-08-30T14:21:46;18.60;99.90
32728;DHT22;55292;51.844;19.246;2023-08-30T14:26:49;18.20;99.90
32728;DHT22;55292;51.844;19.246;2023-08-30T14:31:52;18.00;99.90
32728;DHT22;55292;51.844;19.246;2023-08-30T14:36:54;17.70;99.90
32728;DHT22;55292;51.844;19.246;2023-08-30T14:41:57;17.60;99.90
32728;DHT22;55292;51.844;19.246;2023-08-30T14:47:00;17.80;99.90
32728;DHT22;55292;51.844;19.246;2023-08-30T14:52:03;18.00;99.90
32728;DHT22;55292;51.844;19.246;2023-08-30T14:57:06;18.30;99.90
32728;DHT22;55292;51.844;19.246;2023-08-30T15:02:09;18.40;99.90
32728;DHT22;55292;51.844;19.246;2023-08-30T15:07:12;18.30;99.90
32728;DHT22;55292;51.844;19.246;2023-08-30T15:12:15;18.30;99.90
32728;DHT22;55292;51.844;19.246;2023-08-30T15:17:18;18.30;99.90
32728;DHT22;55292;51.844;19.246;2023-08-30T15:22:21;18.40;99.90
32728;DHT22;55292;51.844;19.246;2023-08-30T15:27:24;18.40;99.90
32728;DHT22;55292;51.844;19.246;2023-08-30T15:32:27;18.70;99.90
32728;DHT22;55292;51.844;19.246;2023-08-30T15:45:38;18.40;99.90
32728;DHT22;55292;51.844;19.246;2023-08-30T15:50:42;18.40;99.90
32728;DHT22;55292;51.844;19.246;2023-08-30T15:55:45;18.50;99.90
32728;DHT22;55292;51.844;19.246;2023-08-30T16:00:48;18.40;99.90
32728;DHT22;55292;51.844;19.246;2023-08-30T16:05:52;18.30;99.90
32728;DHT22;55292;51.844;19.246;2023-08-30T16:10:55;18.20;99.90
32728;DHT22;55292;51.844;19.246;2023-08-30T16:15:59;18.10;99.90
32728;DHT22;55292;51.844;19.246;2023-08-30T16:21:03;18.10;99.90
32728;DHT22;55292;51.844;19.246;2023-08-30T16:26:06;18.00;99.90
32728;DHT22;55292;51.844;19.246;2023-08-30T16:31:10;18.00;99.90
32728;DHT22;55292;51.844;19.246;2023-08-30T16:36:14;18.10;99.90
32728;DHT22;55292;51.844;19.246;2023-08-30T16:41:17;18.20;99.90
32728;DHT22;55292;51.844;19.246;2023-08-30T16:46:20;18.10;99.90
32728;DHT22;55292;51.844;19.246;2023-08-30T16:51:22;17.90;99.90
32728;DHT22;55292;51.844;19.246;2023-08-30T16:56:25;17.80;99.90
32728;DHT22;55292;51.844;19.246;2023-08-30T17:01:28;17.70;99.90
32728;DHT22;55292;51.844;19.246;2023-08-30T17:06:32;17.50;99.90
32728;DHT22;55292;51.844;19.246;2023-08-30T17:11:35;17.40;99.90
32728;DHT22;55292;51.844;19.246;2023-08-30T17:16:41;17.30;99.90
32728;DHT22;55292;51.844;19.246;2023-08-30T17:21:44;17.20;99.90
32728;DHT22;55292;51.844;19.246;2023-08-30T17:26:47;17.10;99.90
32728;DHT22;55292;51.844;19.246;2023-08-30T17:31:49;17.00;99.90
32728;DHT22;55292;51.844;19.246;2023-08-30T17:36:55;17.00;99.90
32728;DHT22;55292;51.844;19.246;2023-08-30T17:42:01;16.90;99.90
32728;DHT22;55292;51.844;19.246;2023-08-30T17:47:05;16.80;99.90
32728;DHT22;55292;51.844;19.246;2023-08-30T17:52:08;16.70;99.90
32728;DHT22;55292;51.844;19.246;2023-08-30T17:57:11;16.60;99.90
32728;DHT22;55292;51.844;19.246;2023-08-30T18:02:14;16.50;99.90
32728;DHT22;55292;51.844;19.246;2023-08-30T18:07:17;16.50;99.90
32728;DHT22;55292;51.844;19.246;2023-08-30T18:12:20;16.40;99.90
32728;DHT22;55292;51.844;19.246;2023-08-30T18:17:22;16.30;99.90
32728;DHT22;55292;51.844;19.246;2023-08-30T18:22:27;16.20;99.90
32728;DHT22;55292;51.844;19.246;2023-08-30T18:27:29;16.10;99.90
32728;DHT22;55292;51.844;19.246;2023-08-30T18:32:34;16.00;99.90
32728;DHT22;55292;51.844;19.246;2023-08-30T18:37:37;16.00;99.90
32728;DHT22;55292;51.844;19.246;2023-08-30T18:42:39;15.90;99.90
32728;DHT22;55292;51.844;19.246;2023-08-30T18:47:42;15.80;99.90
32728;DHT22;55292;51.844;19.246;2023-08-30T18:52:45;15.70;99.90
32728;DHT22;55292;51.844;19.246;2023-08-30T18:57:51;15.70;99.90
32728;DHT22;55292;51.844;19.246;2023-08-30T19:02:56;15.60;99.90
32728;DHT22;55292;51.844;19.246;2023-08-30T19:07:59;15.60;99.90
32728;DHT22;55292;51.844;19.246;2023-08-30T19:13:04;15.60;99.90
32728;DHT22;55292;51.844;19.246;2023-08-30T19:18:07;15.50;99.90
32728;DHT22;55292;51.844;19.246;2023-08-30T19:23:10;15.50;99.90
32728;DHT22;55292;51.844;19.246;2023-08-30T19:28:16;15.60;99.90
32728;DHT22;55292;51.844;19.246;2023-08-30T19:33:20;15.60;99.90
32728;DHT22;55292;51.844;19.246;2023-08-30T19:38:24;15.50;99.90
32728;DHT22;55292;51.844;19.246;2023-08-30T19:43:27;15.60;99.90
32728;DHT22;55292;51.844;19.246;2023-08-30T19:48:31;15.50;99.90
32728;DHT22;55292;51.844;19.246;2023-08-30T19:53:34;15.50;99.90
32728;DHT22;55292;51.844;19.246;2023-08-30T19:58:37;15.50;99.90
32728;DHT22;55292;51.844;19.246;2023-08-30T20:03:41;15.50;99.90
32728;DHT22;55292;51.844;19.246;2023-08-30T20:08:44;15.30;99.90
32728;DHT22;55292;51.844;19.246;2023-08-30T20:13:47;15.30;99.90
32728;DHT22;55292;51.844;19.246;2023-08-30T20:18:50;15.30;99.90
32728;DHT22;55292;51.844;19.246;2023-08-30T20:23:55;15.30;99.90
32728;DHT22;55292;51.844;19.246;2023-08-30T20:28:57;15.30;99.90
32728;DHT22;55292;51.844;19.246;2023-08-30T20:34:01;15.40;99.90
32728;DHT22;55292;51.844;19.246;2023-08-30T20:39:03;15.30;99.90
32728;DHT22;55292;51.844;19.246;2023-08-30T20:44:06;15.30;99.90
32728;DHT22;55292;51.844;19.246;2023-08-30T20:49:11;15.30;99.90
32728;DHT22;55292;51.844;19.246;2023-08-30T20:54:14;15.40;99.90
32728;DHT22;55292;51.844;19.246;2023-08-30T20:59:17;15.30;99.90
32728;DHT22;55292;51.844;19.246;2023-08-30T21:04:19;15.30;99.90
32728;DHT22;55292;51.844;19.246;2023-08-30T21:09:22;15.30;99.90
32728;DHT22;55292;51.844;19.246;2023-08-30T21:14:25;15.30;99.90
32728;DHT22;55292;51.844;19.246;2023-08-30T21:19:28;15.30;99.90
32728;DHT22;55292;51.844;19.246;2023-08-30T21:24:31;15.30;99.90
32728;DHT22;55292;51.844;19.246;2023-08-30T21:29:34;15.30;99.90
32728;DHT22;55292;51.844;19.246;2023-08-30T21:34:37;15.40;99.90
32728;DHT22;55292;51.844;19.246;2023-08-30T21:39:39;15.40;99.90
32728;DHT22;55292;51.844;19.246;2023-08-30T21:44:46;15.40;99.90
32728;DHT22;55292;51.844;19.246;2023-08-30T21:49:49;15.50;99.90
32728;DHT22;55292;51.844;19.246;2023-08-30T21:54:52;18.80;99.90
32728;DHT22;55292;51.844;19.246;2023-08-30T21:59:55;15.40;99.90
32728;DHT22;55292;51.844;19.246;2023-08-30T22:04:57;15.40;99.90
32728;DHT22;55292;51.844;19.246;2023-08-30T22:10:00;15.40;99.90
32728;DHT22;55292;51.844;19.246;2023-08-30T22:15:03;15.40;99.90
32728;DHT22;55292;51.844;19.246;2023-08-30T22:20:09;15.40;99.90
32728;DHT22;55292;51.844;19.246;2023-08-30T22:25:13;15.30;99.90
32728;DHT22;55292;51.844;19.246;2023-08-30T22:30:16;15.20;99.90
32728;DHT22;55292;51.844;19.246;2023-08-30T22:35:19;15.20;99.90
32728;DHT22;55292;51.844;19.246;2023-08-30T22:40:22;15.30;99.90
32728;DHT22;55292;51.844;19.246;2023-08-30T22:45:24;15.40;99.90
32728;DHT22;55292;51.844;19.246;2023-08-30T22:50:27;15.40;99.90
32728;DHT22;55292;51.844;19.246;2023-08-30T22:55:30;15.40;99.90
32728;DHT22;55292;51.844;19.246;2023-08-30T23:00:34;15.30;99.90
32728;DHT22;55292;51.844;19.246;2023-08-30T23:05:38;15.30;99.90
32728;DHT22;55292;51.844;19.246;2023-08-30T23:10:42;15.10;99.90
32728;DHT22;55292;51.844;19.246;2023-08-30T23:15:45;15.00;99.90
32728;DHT22;55292;51.844;19.246;2023-08-30T23:20:48;15.00;99.90
32728;DHT22;55292;51.844;19.246;2023-08-30T23:25:51;15.00;99.90
32728;DHT22;55292;51.844;19.246;2023-08-30T23:30:53;15.10;99.90
32728;DHT22;55292;51.844;19.246;2023-08-30T23:36:00;15.20;99.90
32728;DHT22;55292;51.844;19.246;2023-08-30T23:41:04;15.30;99.90
32728;DHT22;55292;51.844;19.246;2023-08-30T23:46:06;15.30;99.90
32728;DHT22;55292;51.844;19.246;2023-08-30T23:51:09;15.30;99.90
32728;DHT22;55292;51.844;19.246;2023-08-30T23:56:13;15.40;99.90
